Isleworth, United Kingdom
Current Conditions -  °F | °C
As of 10:20 PM on Friday 19 Dec 2014 (Local Time) from EGLL Reporting Station
Clear Clear  
Wind Chill:   Ceiling: Unl
Heat Index:   Visibility: 6mi
Dew Point:   Wind: 8mph
Humidity: 81%   Direction: 220°SW
Pressure: 30.21"   Gusts: NA
Location:  51.47°N, 0.35°W
Report Text: EGLL 192220Z 22007KT 190V250 CAVOK 05/02 Q1023
Loading
Personal Weather Stations






























Interactive Weather Map New forecast layout! Learn more

10-Day Weather Forecast

Advertisements
Track Severe Weather on mobile